createdAt,value
2019-02-09T00:01:46.302Z,4.49
2019-02-09T00:06:53.941Z,3.20
2019-02-09T00:12:01.559Z,3.78
2019-02-09T00:17:09.247Z,4.14
2019-02-09T00:22:16.902Z,3.42
2019-02-09T00:27:24.674Z,3.16
2019-02-09T00:32:32.346Z,2.98
2019-02-09T00:37:40.109Z,3.44
2019-02-09T00:42:47.737Z,3.95
2019-02-09T00:47:55.418Z,4.05
2019-02-09T00:53:03.055Z,4.51
2019-02-09T00:58:10.737Z,4.50
2019-02-09T01:03:18.374Z,4.85
2019-02-09T01:08:26.055Z,5.01
2019-02-09T01:13:33.603Z,5.39
2019-02-09T01:18:41.289Z,5.33
2019-02-09T01:23:48.933Z,5.44
2019-02-09T01:28:56.591Z,5.17
2019-02-09T01:34:04.287Z,4.86
2019-02-09T01:39:11.918Z,5.41
2019-02-09T01:44:19.569Z,5.47
2019-02-09T01:49:27.197Z,4.71
2019-02-09T01:54:34.880Z,3.88
2019-02-09T01:59:42.552Z,3.61
2019-02-09T02:04:50.251Z,4.13
2019-02-09T02:09:57.913Z,3.36
2019-02-09T02:15:05.623Z,3.38
2019-02-09T02:20:13.253Z,2.91
2019-02-09T02:25:20.960Z,3.42
2019-02-09T02:30:28.594Z,3.48
2019-02-09T02:35:36.247Z,3.57
2019-02-09T02:40:43.954Z,2.80
2019-02-09T02:45:51.601Z,3.25
2019-02-09T02:50:59.534Z,2.63
2019-02-09T02:56:07.194Z,2.91
2019-02-09T03:01:14.824Z,2.92
2019-02-09T03:06:22.576Z,2.56
2019-02-09T03:11:30.209Z,2.88
2019-02-09T03:16:45.575Z,2.74
2019-02-09T03:21:43.146Z,2.38
2019-02-09T03:26:50.862Z,2.34
2019-02-09T03:31:58.493Z,2.16
2019-02-09T03:37:06.199Z,2.16
2019-02-09T03:42:13.819Z,2.61
2019-02-09T03:47:21.496Z,2.34
2019-02-09T03:52:29.133Z,2.18
2019-02-09T03:57:36.783Z,2.91
2019-02-09T04:02:44.445Z,2.81
2019-02-09T04:07:52.092Z,2.75
2019-02-09T04:12:59.797Z,2.51
2019-02-09T04:18:07.461Z,2.71
2019-02-09T04:23:15.084Z,3.46
2019-02-09T04:28:22.745Z,2.56
2019-02-09T04:33:30.437Z,2.81
2019-02-09T04:38:38.084Z,2.33
2019-02-09T04:43:45.705Z,2.80
2019-02-09T04:48:53.376Z,2.55
2019-02-09T04:54:01.061Z,2.43
2019-02-09T04:59:08.726Z,2.86
2019-02-09T05:04:16.377Z,2.86
2019-02-09T05:09:24.957Z,2.93
2019-02-09T05:14:32.610Z,2.94
2019-02-09T05:19:40.313Z,2.58
2019-02-09T05:24:47.912Z,2.36
2019-02-09T05:29:55.532Z,2.18
2019-02-09T05:35:03.164Z,2.90
2019-02-09T05:40:10.804Z,2.80
2019-02-09T05:45:18.425Z,3.03
2019-02-09T05:50:26.037Z,3.03
2019-02-09T05:55:33.656Z,2.79
2019-02-09T06:00:41.312Z,2.27
2019-02-09T06:05:48.949Z,2.54
2019-02-09T06:10:56.610Z,2.23
2019-02-09T06:16:04.248Z,2.21
2019-02-09T06:21:11.970Z,2.00
2019-02-09T06:26:19.621Z,1.71
2019-02-09T06:31:27.286Z,1.72
2019-02-09T06:36:34.946Z,1.94
2019-02-09T06:41:42.634Z,1.72
2019-02-09T06:46:50.283Z,2.00
2019-02-09T06:51:58.331Z,2.13
2019-02-09T06:57:06.335Z,1.97
2019-02-09T07:02:14.131Z,3.03
2019-02-09T07:07:22.552Z,2.85
2019-02-09T07:12:30.200Z,2.35
2019-02-09T07:17:37.641Z,2.99
2019-02-09T07:22:45.300Z,2.76
2019-02-09T07:27:52.940Z,2.66
2019-02-09T07:33:00.664Z,3.14
2019-02-09T07:38:08.317Z,2.91
2019-02-09T07:43:15.965Z,2.64
2019-02-09T07:48:24.107Z,2.92
2019-02-09T07:53:30.820Z,2.96
2019-02-09T07:58:38.437Z,2.81
2019-02-09T08:03:46.121Z,3.37
2019-02-09T08:08:53.749Z,3.48
2019-02-09T08:14:01.464Z,3.74
2019-02-09T08:19:09.184Z,3.84
2019-02-09T08:24:16.851Z,3.87
2019-02-09T08:29:24.464Z,3.41
2019-02-09T08:34:32.120Z,3.97
2019-02-09T08:39:39.764Z,4.41
2019-02-09T08:44:47.447Z,3.91
2019-02-09T08:49:55.049Z,3.83
2019-02-09T08:55:02.757Z,4.43
2019-02-09T09:00:10.396Z,3.73
2019-02-09T09:05:20.357Z,4.35
2019-02-09T09:10:27.972Z,4.31
2019-02-09T09:15:35.633Z,4.45
2019-02-09T09:20:43.292Z,3.40
2019-02-09T09:25:51.020Z,4.10
2019-02-09T09:30:58.676Z,4.01
2019-02-09T09:36:06.354Z,3.43
2019-02-09T09:41:14.001Z,3.61
2019-02-09T09:46:21.654Z,3.41
2019-02-09T09:51:29.344Z,3.58
2019-02-09T09:56:36.990Z,3.20
2019-02-09T10:01:44.624Z,3.35
2019-02-09T10:06:52.313Z,3.88
2019-02-09T10:12:00.058Z,2.96
2019-02-09T10:17:07.701Z,3.07
2019-02-09T10:22:15.340Z,3.36
2019-02-09T10:27:23.000Z,3.30
2019-02-09T10:32:30.648Z,3.02
2019-02-09T10:37:38.345Z,2.82
2019-02-09T10:42:46.026Z,3.66
2019-02-09T10:47:53.724Z,3.56
2019-02-09T10:53:01.406Z,3.25
2019-02-09T10:58:09.104Z,2.70
2019-02-09T11:03:16.746Z,3.33
2019-02-09T11:08:24.463Z,3.27
2019-02-09T11:13:32.997Z,3.15
2019-02-09T11:18:40.728Z,2.55
2019-02-09T11:23:48.342Z,3.14
2019-02-09T11:28:55.999Z,3.38
2019-02-09T11:34:03.638Z,3.57
2019-02-09T11:39:11.119Z,3.01
2019-02-09T11:44:18.816Z,3.27
2019-02-09T11:49:26.425Z,4.41
2019-02-09T11:54:34.132Z,3.24
2019-02-09T11:59:41.815Z,3.82
2019-02-09T12:04:49.461Z,3.44
2019-02-09T12:09:57.229Z,3.58
2019-02-09T12:15:04.836Z,3.39
2019-02-09T12:20:12.524Z,3.25
2019-02-09T12:25:20.203Z,2.73
2019-02-09T12:30:27.844Z,3.21
2019-02-09T12:35:35.575Z,3.94
2019-02-09T12:40:43.230Z,3.65
2019-02-09T12:45:50.880Z,3.30
2019-02-09T12:50:58.855Z,3.52
2019-02-09T12:56:06.517Z,2.91
2019-02-09T13:01:14.168Z,3.43
2019-02-09T13:06:21.846Z,2.80
2019-02-09T13:11:29.491Z,3.10
2019-02-09T13:16:37.162Z,2.81
2019-02-09T13:21:44.768Z,2.73
2019-02-09T13:26:52.441Z,2.73
2019-02-09T13:32:00.076Z,3.31
2019-02-09T13:37:07.788Z,2.26
2019-02-09T13:42:15.420Z,2.66
2019-02-09T13:47:23.060Z,2.55
2019-02-09T13:52:30.707Z,2.57
2019-02-09T13:57:38.469Z,3.32
2019-02-09T14:02:46.101Z,2.47
2019-02-09T14:07:53.736Z,2.91
2019-02-09T14:13:01.368Z,2.93
2019-02-09T14:18:09.006Z,3.03
2019-02-09T14:23:16.700Z,3.22
2019-02-09T14:28:24.360Z,3.21
2019-02-09T14:33:32.061Z,3.35
2019-02-09T14:38:39.688Z,2.63
2019-02-09T14:43:47.357Z,3.68
2019-02-09T14:48:55.025Z,3.92
2019-02-09T14:54:02.719Z,3.13
2019-02-09T14:59:10.372Z,3.54
2019-02-09T15:04:18.020Z,3.69
2019-02-09T15:09:25.722Z,4.67
2019-02-09T15:14:33.442Z,4.87
2019-02-09T15:19:41.076Z,5.82
2019-02-09T15:24:48.709Z,4.91
2019-02-09T15:29:56.360Z,3.94
2019-02-09T15:35:04.103Z,3.36
2019-02-09T15:40:11.732Z,3.99
2019-02-09T15:45:19.473Z,3.66
2019-02-09T15:50:27.110Z,3.41
2019-02-09T15:55:34.746Z,3.59
2019-02-09T16:00:42.552Z,3.06
2019-02-09T16:05:50.185Z,3.32
2019-02-09T16:10:57.875Z,3.54
2019-02-09T16:16:05.520Z,3.09
2019-02-09T16:21:13.177Z,2.97
2019-02-09T16:26:20.897Z,2.88
2019-02-09T16:31:28.561Z,2.72
2019-02-09T16:36:36.165Z,3.33
2019-02-09T16:41:43.810Z,2.82
2019-02-09T16:46:51.456Z,3.30
2019-02-09T16:51:59.104Z,2.75
2019-02-09T16:57:06.758Z,3.03
2019-02-09T17:02:14.529Z,3.70
2019-02-09T17:07:22.161Z,3.44
2019-02-09T17:12:29.816Z,3.61
2019-02-09T17:17:37.541Z,3.22
2019-02-09T17:22:45.265Z,3.57
2019-02-09T17:27:52.897Z,3.52
2019-02-09T17:33:00.544Z,3.66
2019-02-09T17:38:08.197Z,4.46
2019-02-09T17:43:16.010Z,3.35
2019-02-09T17:48:23.631Z,3.86
2019-02-09T17:53:31.374Z,3.85
2019-02-09T17:58:38.994Z,4.38
2019-02-09T18:03:46.622Z,5.20
2019-02-09T18:08:54.325Z,3.92
2019-02-09T18:14:01.989Z,3.91
2019-02-09T18:19:09.600Z,4.17
2019-02-09T18:24:17.333Z,3.79
2019-02-09T18:29:27.422Z,4.63
2019-02-09T18:34:25.053Z,4.41
2019-02-09T18:39:32.964Z,4.85
2019-02-09T18:44:41.428Z,4.23
2019-02-09T18:49:49.134Z,4.23
2019-02-09T18:54:57.521Z,4.51
2019-02-09T19:00:07.282Z,3.28
2019-02-09T19:05:14.949Z,3.67
2019-02-09T19:10:22.604Z,3.87
2019-02-09T19:15:30.261Z,3.65
2019-02-09T19:20:37.903Z,4.17
2019-02-09T19:25:45.524Z,3.40
2019-02-09T19:30:53.193Z,4.31
2019-02-09T19:36:00.822Z,4.82
2019-02-09T19:41:08.546Z,5.06
2019-02-09T19:46:16.302Z,4.48
2019-02-09T19:51:24.004Z,4.35
2019-02-09T19:56:31.654Z,4.96
2019-02-09T20:01:39.333Z,4.55
2019-02-09T20:06:46.970Z,4.44
2019-02-09T20:11:54.629Z,4.24
2019-02-09T20:17:02.265Z,5.01
2019-02-09T20:22:09.948Z,4.37
2019-02-09T20:27:17.563Z,4.54
2019-02-09T20:32:25.268Z,4.98
2019-02-09T20:37:32.924Z,5.36
2019-02-09T20:42:42.195Z,4.92
2019-02-09T20:47:50.186Z,4.40
2019-02-09T20:52:57.073Z,4.38
2019-02-09T20:58:04.741Z,4.97
2019-02-09T21:03:12.390Z,4.09
2019-02-09T21:08:20.034Z,4.25
2019-02-09T21:13:27.706Z,5.18
2019-02-09T21:18:35.342Z,4.86
2019-02-09T21:23:42.970Z,5.12
2019-02-09T21:28:50.705Z,5.80
2019-02-09T21:33:58.344Z,4.64
2019-02-09T21:39:06.094Z,4.84
2019-02-09T21:44:13.735Z,4.67
2019-02-09T21:49:21.426Z,4.40
2019-02-09T21:54:29.038Z,4.47
2019-02-09T21:59:36.721Z,4.25
2019-02-09T22:04:44.361Z,4.72
2019-02-09T22:09:52.029Z,4.53
2019-02-09T22:14:59.656Z,4.11
2019-02-09T22:20:07.303Z,4.30
2019-02-09T22:25:14.977Z,4.38
2019-02-09T22:30:25.562Z,4.97
2019-02-09T22:35:23.226Z,4.13
2019-02-09T22:40:30.841Z,5.09
2019-02-09T22:45:38.514Z,4.77
2019-02-09T22:50:46.165Z,4.72
2019-02-09T22:55:53.828Z,4.62
2019-02-09T23:01:01.474Z,4.23
2019-02-09T23:06:09.165Z,4.24
2019-02-09T23:11:16.784Z,4.35
2019-02-09T23:21:30.725Z,4.29
2019-02-09T23:26:38.368Z,4.17
2019-02-09T23:31:46.089Z,4.37
2019-02-09T23:36:53.742Z,4.94
2019-02-09T23:42:01.369Z,5.53
2019-02-09T23:47:08.980Z,3.79
2019-02-09T23:52:16.634Z,4.76
2019-02-09T23:57:30.465Z,4.63
